sensor_id;sensor_type;location;lat;lon;timestamp;P1;durP1;ratioP1;P2;durP2;ratioP2
51764;SDS011;37835;53.256;6.456;2024-02-21T00:01:39;16.85;;;3.65;;
51764;SDS011;37835;53.256;6.456;2024-02-21T00:04:04;23.88;;;4.88;;
51764;SDS011;37835;53.256;6.456;2024-02-21T00:06:31;21.63;;;4.10;;
51764;SDS011;37835;53.256;6.456;2024-02-21T00:08:57;14.73;;;3.40;;
51764;SDS011;37835;53.256;6.456;2024-02-21T00:11:23;20.85;;;3.70;;
51764;SDS011;37835;53.256;6.456;2024-02-21T00:13:48;12.63;;;3.72;;
51764;SDS011;37835;53.256;6.456;2024-02-21T00:16:15;21.85;;;4.20;;
51764;SDS011;37835;53.256;6.456;2024-02-21T00:18:41;22.40;;;3.83;;
51764;SDS011;37835;53.256;6.456;2024-02-21T00:21:08;21.08;;;4.30;;
51764;SDS011;37835;53.256;6.456;2024-02-21T00:23:33;24.42;;;4.22;;
51764;SDS011;37835;53.256;6.456;2024-02-21T00:25:59;23.58;;;4.88;;
51764;SDS011;37835;53.256;6.456;2024-02-21T00:28:25;23.10;;;3.83;;
51764;SDS011;37835;53.256;6.456;2024-02-21T00:30:50;23.77;;;4.05;;
51764;SDS011;37835;53.256;6.456;2024-02-21T00:33:18;19.05;;;4.35;;
51764;SDS011;37835;53.256;6.456;2024-02-21T00:35:44;24.20;;;4.35;;
51764;SDS011;37835;53.256;6.456;2024-02-21T00:38:09;23.40;;;4.20;;
51764;SDS011;37835;53.256;6.456;2024-02-21T00:40:35;24.02;;;4.40;;
51764;SDS011;37835;53.256;6.456;2024-02-21T00:43:01;18.30;;;4.95;;
51764;SDS011;37835;53.256;6.456;2024-02-21T00:45:27;16.88;;;4.15;;
51764;SDS011;37835;53.256;6.456;2024-02-21T00:47:53;21.75;;;4.68;;
51764;SDS011;37835;53.256;6.456;2024-02-21T00:50:19;23.20;;;4.28;;
51764;SDS011;37835;53.256;6.456;2024-02-21T00:52:44;19.58;;;4.55;;
51764;SDS011;37835;53.256;6.456;2024-02-21T00:55:10;22.42;;;4.53;;
51764;SDS011;37835;53.256;6.456;2024-02-21T00:57:36;25.15;;;4.75;;
51764;SDS011;37835;53.256;6.456;2024-02-21T01:00:02;20.35;;;5.22;;
51764;SDS011;37835;53.256;6.456;2024-02-21T01:02:28;24.30;;;5.45;;
51764;SDS011;37835;53.256;6.456;2024-02-21T01:04:56;24.92;;;5.55;;
51764;SDS011;37835;53.256;6.456;2024-02-21T01:07:22;20.60;;;5.05;;
51764;SDS011;37835;53.256;6.456;2024-02-21T01:09:49;26.52;;;5.75;;
51764;SDS011;37835;53.256;6.456;2024-02-21T01:12:16;21.70;;;5.07;;
51764;SDS011;37835;53.256;6.456;2024-02-21T01:14:42;30.58;;;6.47;;
51764;SDS011;37835;53.256;6.456;2024-02-21T01:17:07;24.95;;;5.55;;
51764;SDS011;37835;53.256;6.456;2024-02-21T01:19:33;24.05;;;5.70;;
51764;SDS011;37835;53.256;6.456;2024-02-21T01:21:59;29.70;;;6.43;;
51764;SDS011;37835;53.256;6.456;2024-02-21T01:24:24;34.35;;;6.85;;
51764;SDS011;37835;53.256;6.456;2024-02-21T01:26:50;28.33;;;6.22;;
51764;SDS011;37835;53.256;6.456;2024-02-21T01:29:16;29.45;;;6.25;;
51764;SDS011;37835;53.256;6.456;2024-02-21T01:31:42;28.85;;;5.95;;
51764;SDS011;37835;53.256;6.456;2024-02-21T01:34:07;30.38;;;6.00;;
51764;SDS011;37835;53.256;6.456;2024-02-21T01:36:33;22.13;;;5.18;;
51764;SDS011;37835;53.256;6.456;2024-02-21T01:38:59;18.85;;;5.45;;
51764;SDS011;37835;53.256;6.456;2024-02-21T01:41:24;20.65;;;4.97;;
51764;SDS011;37835;53.256;6.456;2024-02-21T01:43:50;19.98;;;5.10;;
51764;SDS011;37835;53.256;6.456;2024-02-21T01:46:16;18.92;;;5.20;;
51764;SDS011;37835;53.256;6.456;2024-02-21T01:48:42;17.05;;;4.80;;
51764;SDS011;37835;53.256;6.456;2024-02-21T01:51:08;17.17;;;5.10;;
51764;SDS011;37835;53.256;6.456;2024-02-21T01:53:37;20.10;;;4.88;;
51764;SDS011;37835;53.256;6.456;2024-02-21T01:56:09;11.38;;;4.53;;
51764;SDS011;37835;53.256;6.456;2024-02-21T01:58:36;19.00;;;5.18;;
51764;SDS011;37835;53.256;6.456;2024-02-21T02:01:04;13.30;;;4.53;;
51764;SDS011;37835;53.256;6.456;2024-02-21T02:03:29;13.43;;;5.28;;
51764;SDS011;37835;53.256;6.456;2024-02-21T02:05:56;18.77;;;5.20;;
51764;SDS011;37835;53.256;6.456;2024-02-21T02:08:21;18.98;;;5.55;;
51764;SDS011;37835;53.256;6.456;2024-02-21T02:10:47;21.63;;;5.53;;
51764;SDS011;37835;53.256;6.456;2024-02-21T02:13:13;20.52;;;6.30;;
51764;SDS011;37835;53.256;6.456;2024-02-21T02:18:12;22.73;;;6.15;;
51764;SDS011;37835;53.256;6.456;2024-02-21T02:20:39;19.15;;;6.10;;
51764;SDS011;37835;53.256;6.456;2024-02-21T02:25:34;21.33;;;7.20;;
51764;SDS011;37835;53.256;6.456;2024-02-21T02:28:00;21.10;;;6.55;;
51764;SDS011;37835;53.256;6.456;2024-02-21T02:30:26;30.80;;;7.10;;
51764;SDS011;37835;53.256;6.456;2024-02-21T02:32:52;22.48;;;7.68;;
51764;SDS011;37835;53.256;6.456;2024-02-21T02:35:17;23.67;;;7.30;;
51764;SDS011;37835;53.256;6.456;2024-02-21T02:37:49;20.20;;;7.13;;
51764;SDS011;37835;53.256;6.456;2024-02-21T02:40:16;27.75;;;7.07;;
51764;SDS011;37835;53.256;6.456;2024-02-21T02:42:43;25.55;;;7.43;;
51764;SDS011;37835;53.256;6.456;2024-02-21T02:45:09;29.48;;;7.78;;
51764;SDS011;37835;53.256;6.456;2024-02-21T02:47:35;30.08;;;6.95;;
51764;SDS011;37835;53.256;6.456;2024-02-21T02:50:01;27.08;;;6.93;;
51764;SDS011;37835;53.256;6.456;2024-02-21T02:52:26;32.45;;;7.05;;
51764;SDS011;37835;53.256;6.456;2024-02-21T02:54:52;25.25;;;6.85;;
51764;SDS011;37835;53.256;6.456;2024-02-21T02:57:20;27.85;;;7.00;;
51764;SDS011;37835;53.256;6.456;2024-02-21T02:59:49;35.25;;;7.05;;
51764;SDS011;37835;53.256;6.456;2024-02-21T03:02:16;30.02;;;7.15;;
51764;SDS011;37835;53.256;6.456;2024-02-21T03:04:43;33.05;;;7.53;;
51764;SDS011;37835;53.256;6.456;2024-02-21T03:07:09;24.60;;;6.72;;
51764;SDS011;37835;53.256;6.456;2024-02-21T03:09:36;34.65;;;6.75;;
51764;SDS011;37835;53.256;6.456;2024-02-21T03:12:03;31.67;;;7.10;;
51764;SDS011;37835;53.256;6.456;2024-02-21T03:14:29;32.97;;;6.93;;
51764;SDS011;37835;53.256;6.456;2024-02-21T03:16:55;37.67;;;7.38;;
51764;SDS011;37835;53.256;6.456;2024-02-21T03:19:21;34.53;;;7.07;;
51764;SDS011;37835;53.256;6.456;2024-02-21T03:21:47;37.35;;;7.40;;
51764;SDS011;37835;53.256;6.456;2024-02-21T03:24:14;39.10;;;7.40;;
51764;SDS011;37835;53.256;6.456;2024-02-21T03:26:41;36.50;;;8.10;;
51764;SDS011;37835;53.256;6.456;2024-02-21T03:29:07;32.70;;;7.18;;
51764;SDS011;37835;53.256;6.456;2024-02-21T03:31:34;30.90;;;6.80;;
51764;SDS011;37835;53.256;6.456;2024-02-21T03:34:00;40.80;;;7.95;;
51764;SDS011;37835;53.256;6.456;2024-02-21T03:36:25;38.33;;;7.75;;
51764;SDS011;37835;53.256;6.456;2024-02-21T03:38:51;29.60;;;7.13;;
51764;SDS011;37835;53.256;6.456;2024-02-21T03:41:17;37.08;;;7.35;;
51764;SDS011;37835;53.256;6.456;2024-02-21T03:43:43;46.83;;;9.13;;
51764;SDS011;37835;53.256;6.456;2024-02-21T03:46:08;33.60;;;7.45;;
51764;SDS011;37835;53.256;6.456;2024-02-21T03:48:34;20.30;;;6.95;;
51764;SDS011;37835;53.256;6.456;2024-02-21T03:51:00;36.78;;;6.68;;
51764;SDS011;37835;53.256;6.456;2024-02-21T03:53:26;34.00;;;6.97;;
51764;SDS011;37835;53.256;6.456;2024-02-21T03:55:53;37.78;;;7.40;;
51764;SDS011;37835;53.256;6.456;2024-02-21T03:58:19;38.33;;;7.55;;
51764;SDS011;37835;53.256;6.456;2024-02-21T04:00:45;30.65;;;7.10;;
51764;SDS011;37835;53.256;6.456;2024-02-21T04:03:11;29.45;;;7.63;;
51764;SDS011;37835;53.256;6.456;2024-02-21T04:05:37;34.90;;;7.72;;
51764;SDS011;37835;53.256;6.456;2024-02-21T04:08:04;35.67;;;7.93;;
51764;SDS011;37835;53.256;6.456;2024-02-21T04:10:30;36.85;;;8.25;;
51764;SDS011;37835;53.256;6.456;2024-02-21T04:12:56;33.33;;;7.60;;
51764;SDS011;37835;53.256;6.456;2024-02-21T04:15:21;36.13;;;8.32;;
51764;SDS011;37835;53.256;6.456;2024-02-21T04:17:47;37.83;;;8.68;;
51764;SDS011;37835;53.256;6.456;2024-02-21T04:20:16;31.40;;;8.55;;
51764;SDS011;37835;53.256;6.456;2024-02-21T04:22:45;26.05;;;8.35;;
51764;SDS011;37835;53.256;6.456;2024-02-21T04:25:11;37.53;;;8.20;;
51764;SDS011;37835;53.256;6.456;2024-02-21T04:27:38;35.22;;;8.00;;
51764;SDS011;37835;53.256;6.456;2024-02-21T04:30:04;41.50;;;7.85;;
51764;SDS011;37835;53.256;6.456;2024-02-21T04:32:31;23.50;;;7.28;;
51764;SDS011;37835;53.256;6.456;2024-02-21T04:34:57;30.13;;;7.43;;
51764;SDS011;37835;53.256;6.456;2024-02-21T04:37:23;28.42;;;6.95;;
51764;SDS011;37835;53.256;6.456;2024-02-21T04:39:49;33.40;;;7.60;;
51764;SDS011;37835;53.256;6.456;2024-02-21T04:42:15;39.72;;;7.90;;
51764;SDS011;37835;53.256;6.456;2024-02-21T04:44:41;34.38;;;7.38;;
51764;SDS011;37835;53.256;6.456;2024-02-21T04:47:07;30.08;;;6.80;;
51764;SDS011;37835;53.256;6.456;2024-02-21T04:49:32;29.25;;;6.68;;
51764;SDS011;37835;53.256;6.456;2024-02-21T04:51:58;39.72;;;7.07;;
51764;SDS011;37835;53.256;6.456;2024-02-21T04:54:24;33.75;;;6.75;;
51764;SDS011;37835;53.256;6.456;2024-02-21T04:56:50;33.08;;;6.63;;
51764;SDS011;37835;53.256;6.456;2024-02-21T04:59:16;29.23;;;7.15;;
51764;SDS011;37835;53.256;6.456;2024-02-21T05:01:42;25.20;;;6.88;;
51764;SDS011;37835;53.256;6.456;2024-02-21T05:04:08;37.67;;;6.70;;
51764;SDS011;37835;53.256;6.456;2024-02-21T05:06:40;40.10;;;7.68;;
51764;SDS011;37835;53.256;6.456;2024-02-21T05:09:09;33.92;;;6.57;;
51764;SDS011;37835;53.256;6.456;2024-02-21T05:11:35;34.15;;;7.07;;
51764;SDS011;37835;53.256;6.456;2024-02-21T05:14:02;31.75;;;6.97;;
51764;SDS011;37835;53.256;6.456;2024-02-21T05:16:29;25.85;;;5.80;;
51764;SDS011;37835;53.256;6.456;2024-02-21T05:18:55;38.03;;;7.22;;
51764;SDS011;37835;53.256;6.456;2024-02-21T05:21:22;28.80;;;7.13;;
51764;SDS011;37835;53.256;6.456;2024-02-21T05:23:49;33.60;;;6.68;;
51764;SDS011;37835;53.256;6.456;2024-02-21T05:26:24;36.00;;;7.10;;
51764;SDS011;37835;53.256;6.456;2024-02-21T05:28:50;32.92;;;7.32;;
51764;SDS011;37835;53.256;6.456;2024-02-21T05:31:20;39.58;;;7.38;;
51764;SDS011;37835;53.256;6.456;2024-02-21T05:33:46;37.65;;;7.10;;
51764;SDS011;37835;53.256;6.456;2024-02-21T05:36:12;28.40;;;6.55;;
51764;SDS011;37835;53.256;6.456;2024-02-21T05:38:38;40.05;;;7.35;;
51764;SDS011;37835;53.256;6.456;2024-02-21T05:41:04;34.08;;;7.50;;
51764;SDS011;37835;53.256;6.456;2024-02-21T05:43:30;32.80;;;7.50;;
51764;SDS011;37835;53.256;6.456;2024-02-21T05:45:56;42.00;;;7.85;;
51764;SDS011;37835;53.256;6.456;2024-02-21T05:48:22;36.33;;;7.72;;
51764;SDS011;37835;53.256;6.456;2024-02-21T05:50:48;35.35;;;8.30;;
51764;SDS011;37835;53.256;6.456;2024-02-21T05:53:14;35.78;;;8.00;;
51764;SDS011;37835;53.256;6.456;2024-02-21T05:55:40;45.30;;;8.90;;
51764;SDS011;37835;53.256;6.456;2024-02-21T05:58:06;38.08;;;7.85;;
51764;SDS011;37835;53.256;6.456;2024-02-21T06:00:32;41.55;;;8.77;;
51764;SDS011;37835;53.256;6.456;2024-02-21T06:02:58;36.65;;;8.25;;
51764;SDS011;37835;53.256;6.456;2024-02-21T06:05:24;36.25;;;8.23;;
51764;SDS011;37835;53.256;6.456;2024-02-21T06:07:50;38.38;;;7.85;;
51764;SDS011;37835;53.256;6.456;2024-02-21T06:10:16;42.97;;;8.07;;
51764;SDS011;37835;53.256;6.456;2024-02-21T06:12:41;35.58;;;7.47;;
51764;SDS011;37835;53.256;6.456;2024-02-21T06:15:07;30.50;;;7.97;;
51764;SDS011;37835;53.256;6.456;2024-02-21T06:17:33;38.83;;;7.60;;
51764;SDS011;37835;53.256;6.456;2024-02-21T06:19:59;36.33;;;8.00;;
51764;SDS011;37835;53.256;6.456;2024-02-21T06:22:25;35.50;;;8.57;;
51764;SDS011;37835;53.256;6.456;2024-02-21T06:24:51;36.08;;;7.75;;
51764;SDS011;37835;53.256;6.456;2024-02-21T06:27:18;40.20;;;8.32;;
51764;SDS011;37835;53.256;6.456;2024-02-21T06:29:44;38.80;;;8.73;;
51764;SDS011;37835;53.256;6.456;2024-02-21T06:32:10;33.35;;;8.23;;
51764;SDS011;37835;53.256;6.456;2024-02-21T06:34:35;31.60;;;8.27;;
51764;SDS011;37835;53.256;6.456;2024-02-21T06:37:01;42.25;;;8.40;;
51764;SDS011;37835;53.256;6.456;2024-02-21T06:39:27;29.77;;;8.57;;
51764;SDS011;37835;53.256;6.456;2024-02-21T06:41:54;34.95;;;9.05;;
51764;SDS011;37835;53.256;6.456;2024-02-21T06:44:20;36.50;;;9.15;;
51764;SDS011;37835;53.256;6.456;2024-02-21T06:46:46;33.70;;;8.50;;
51764;SDS011;37835;53.256;6.456;2024-02-21T06:49:12;36.30;;;9.80;;
51764;SDS011;37835;53.256;6.456;2024-02-21T06:51:41;31.02;;;8.68;;
51764;SDS011;37835;53.256;6.456;2024-02-21T06:54:08;28.88;;;8.70;;
51764;SDS011;37835;53.256;6.456;2024-02-21T06:56:34;30.75;;;10.20;;
51764;SDS011;37835;53.256;6.456;2024-02-21T06:59:01;33.83;;;9.93;;
51764;SDS011;37835;53.256;6.456;2024-02-21T07:01:28;32.38;;;9.85;;
51764;SDS011;37835;53.256;6.456;2024-02-21T07:03:54;36.67;;;9.95;;
51764;SDS011;37835;53.256;6.456;2024-02-21T07:06:20;32.00;;;9.82;;
51764;SDS011;37835;53.256;6.456;2024-02-21T07:08:46;36.53;;;10.07;;
51764;SDS011;37835;53.256;6.456;2024-02-21T07:11:11;37.17;;;10.32;;
51764;SDS011;37835;53.256;6.456;2024-02-21T07:13:37;35.38;;;10.45;;
51764;SDS011;37835;53.256;6.456;2024-02-21T07:16:03;28.42;;;10.05;;
51764;SDS011;37835;53.256;6.456;2024-02-21T07:18:29;31.95;;;10.57;;
51764;SDS011;37835;53.256;6.456;2024-02-21T07:20:55;36.47;;;11.25;;
51764;SDS011;37835;53.256;6.456;2024-02-21T07:23:20;40.67;;;11.77;;
51764;SDS011;37835;53.256;6.456;2024-02-21T07:25:46;45.30;;;14.60;;
51764;SDS011;37835;53.256;6.456;2024-02-21T07:28:12;48.63;;;13.65;;
51764;SDS011;37835;53.256;6.456;2024-02-21T07:30:38;51.40;;;14.23;;
51764;SDS011;37835;53.256;6.456;2024-02-21T07:33:04;48.67;;;16.35;;
51764;SDS011;37835;53.256;6.456;2024-02-21T07:35:30;60.92;;;17.25;;
51764;SDS011;37835;53.256;6.456;2024-02-21T07:37:55;60.50;;;17.02;;
51764;SDS011;37835;53.256;6.456;2024-02-21T07:40:21;61.53;;;19.00;;
51764;SDS011;37835;53.256;6.456;2024-02-21T07:42:47;63.25;;;19.05;;
51764;SDS011;37835;53.256;6.456;2024-02-21T07:45:12;61.55;;;18.48;;
51764;SDS011;37835;53.256;6.456;2024-02-21T07:47:38;60.15;;;19.45;;
51764;SDS011;37835;53.256;6.456;2024-02-21T07:50:04;59.08;;;19.75;;
51764;SDS011;37835;53.256;6.456;2024-02-21T07:52:30;69.95;;;20.48;;
51764;SDS011;37835;53.256;6.456;2024-02-21T07:54:56;61.92;;;19.05;;
51764;SDS011;37835;53.256;6.456;2024-02-21T07:57:22;56.50;;;18.23;;
51764;SDS011;37835;53.256;6.456;2024-02-21T07:59:48;55.25;;;19.02;;
51764;SDS011;37835;53.256;6.456;2024-02-21T08:02:14;48.85;;;17.80;;
51764;SDS011;37835;53.256;6.456;2024-02-21T08:04:40;60.33;;;17.15;;
51764;SDS011;37835;53.256;6.456;2024-02-21T08:07:06;57.28;;;16.02;;
51764;SDS011;37835;53.256;6.456;2024-02-21T08:09:31;58.83;;;14.85;;
51764;SDS011;37835;53.256;6.456;2024-02-21T08:11:57;56.58;;;13.80;;
51764;SDS011;37835;53.256;6.456;2024-02-21T08:14:23;42.53;;;11.52;;
51764;SDS011;37835;53.256;6.456;2024-02-21T08:16:57;40.00;;;10.73;;
51764;SDS011;37835;53.256;6.456;2024-02-21T08:19:24;44.65;;;9.85;;
51764;SDS011;37835;53.256;6.456;2024-02-21T08:21:50;34.75;;;8.55;;
51764;SDS011;37835;53.256;6.456;2024-02-21T08:24:15;29.40;;;7.97;;
51764;SDS011;37835;53.256;6.456;2024-02-21T08:26:42;35.72;;;8.10;;
51764;SDS011;37835;53.256;6.456;2024-02-21T08:29:12;22.58;;;7.90;;
51764;SDS011;37835;53.256;6.456;2024-02-21T08:31:38;28.67;;;7.15;;
51764;SDS011;37835;53.256;6.456;2024-02-21T08:34:04;25.75;;;7.45;;
51764;SDS011;37835;53.256;6.456;2024-02-21T08:38:58;24.67;;;7.50;;
51764;SDS011;37835;53.256;6.456;2024-02-21T08:41:25;19.95;;;7.85;;
51764;SDS011;37835;53.256;6.456;2024-02-21T08:43:51;27.70;;;7.90;;
51764;SDS011;37835;53.256;6.456;2024-02-21T08:46:19;28.42;;;8.52;;
51764;SDS011;37835;53.256;6.456;2024-02-21T08:48:45;24.60;;;8.02;;
51764;SDS011;37835;53.256;6.456;2024-02-21T08:51:11;29.88;;;9.25;;
51764;SDS011;37835;53.256;6.456;2024-02-21T08:53:37;27.08;;;9.07;;
51764;SDS011;37835;53.256;6.456;2024-02-21T08:56:03;29.00;;;9.13;;
51764;SDS011;37835;53.256;6.456;2024-02-21T08:58:29;23.17;;;8.70;;
51764;SDS011;37835;53.256;6.456;2024-02-21T09:00:56;25.13;;;8.60;;
51764;SDS011;37835;53.256;6.456;2024-02-21T09:03:22;29.75;;;9.57;;
51764;SDS011;37835;53.256;6.456;2024-02-21T09:05:47;31.10;;;10.90;;
51764;SDS011;37835;53.256;6.456;2024-02-21T09:08:13;25.70;;;10.13;;
51764;SDS011;37835;53.256;6.456;2024-02-21T09:10:39;26.75;;;11.43;;
51764;SDS011;37835;53.256;6.456;2024-02-21T09:13:05;27.30;;;12.82;;
51764;SDS011;37835;53.256;6.456;2024-02-21T09:15:33;34.38;;;13.93;;
51764;SDS011;37835;53.256;6.456;2024-02-21T09:17:58;33.25;;;14.23;;
51764;SDS011;37835;53.256;6.456;2024-02-21T09:20:25;37.50;;;16.15;;
51764;SDS011;37835;53.256;6.456;2024-02-21T09:22:50;36.83;;;16.60;;
51764;SDS011;37835;53.256;6.456;2024-02-21T09:25:17;33.05;;;17.17;;
51764;SDS011;37835;53.256;6.456;2024-02-21T09:27:46;34.80;;;18.02;;
51764;SDS011;37835;53.256;6.456;2024-02-21T09:30:12;37.25;;;19.38;;
51764;SDS011;37835;53.256;6.456;2024-02-21T09:32:38;45.05;;;20.55;;
51764;SDS011;37835;53.256;6.456;2024-02-21T09:35:04;35.80;;;19.92;;
51764;SDS011;37835;53.256;6.456;2024-02-21T09:37:32;34.75;;;19.95;;
51764;SDS011;37835;53.256;6.456;2024-02-21T09:39:58;41.28;;;20.73;;
51764;SDS011;37835;53.256;6.456;2024-02-21T09:42:27;33.70;;;20.55;;
51764;SDS011;37835;53.256;6.456;2024-02-21T09:45:02;32.63;;;20.30;;
51764;SDS011;37835;53.256;6.456;2024-02-21T09:50:23;35.20;;;20.95;;
51764;SDS011;37835;53.256;6.456;2024-02-21T09:52:51;40.33;;;21.83;;
51764;SDS011;37835;53.256;6.456;2024-02-21T09:55:19;34.33;;;21.42;;
51764;SDS011;37835;53.256;6.456;2024-02-21T09:57:45;32.90;;;20.55;;
51764;SDS011;37835;53.256;6.456;2024-02-21T10:00:11;34.40;;;20.13;;
51764;SDS011;37835;53.256;6.456;2024-02-21T10:02:39;33.72;;;20.92;;
51764;SDS011;37835;53.256;6.456;2024-02-21T10:05:04;42.10;;;21.02;;
51764;SDS011;37835;53.256;6.456;2024-02-21T10:07:33;35.25;;;20.10;;
51764;SDS011;37835;53.256;6.456;2024-02-21T10:10:05;38.15;;;19.42;;
51764;SDS011;37835;53.256;6.456;2024-02-21T10:12:31;34.35;;;19.83;;
51764;SDS011;37835;53.256;6.456;2024-02-21T10:15:01;30.75;;;19.10;;
51764;SDS011;37835;53.256;6.456;2024-02-21T10:17:30;38.58;;;19.83;;
51764;SDS011;37835;53.256;6.456;2024-02-21T10:20:09;32.80;;;20.00;;
51764;SDS011;37835;53.256;6.456;2024-02-21T10:22:37;32.03;;;18.02;;
51764;SDS011;37835;53.256;6.456;2024-02-21T10:25:14;32.58;;;18.38;;
51764;SDS011;37835;53.256;6.456;2024-02-21T10:27:40;34.05;;;19.20;;
51764;SDS011;37835;53.256;6.456;2024-02-21T10:30:07;29.08;;;19.77;;
51764;SDS011;37835;53.256;6.456;2024-02-21T10:32:48;27.55;;;17.70;;
51764;SDS011;37835;53.256;6.456;2024-02-21T10:35:30;31.90;;;18.98;;
51764;SDS011;37835;53.256;6.456;2024-02-21T10:37:57;34.53;;;19.67;;
51764;SDS011;37835;53.256;6.456;2024-02-21T10:40:24;36.42;;;19.30;;
51764;SDS011;37835;53.256;6.456;2024-02-21T10:42:57;32.55;;;19.48;;
51764;SDS011;37835;53.256;6.456;2024-02-21T10:45:45;29.00;;;18.67;;
51764;SDS011;37835;53.256;6.456;2024-02-21T10:48:11;32.97;;;20.80;;
51764;SDS011;37835;53.256;6.456;2024-02-21T10:53:35;35.40;;;20.83;;
51764;SDS011;37835;53.256;6.456;2024-02-21T10:56:33;27.45;;;20.15;;
51764;SDS011;37835;53.256;6.456;2024-02-21T10:59:06;32.45;;;20.50;;
51764;SDS011;37835;53.256;6.456;2024-02-21T11:01:33;33.20;;;21.27;;
51764;SDS011;37835;53.256;6.456;2024-02-21T11:04:03;33.55;;;22.05;;
51764;SDS011;37835;53.256;6.456;2024-02-21T11:06:30;31.92;;;20.83;;
51764;SDS011;37835;53.256;6.456;2024-02-21T11:09:09;33.97;;;22.95;;
51764;SDS011;37835;53.256;6.456;2024-02-21T11:11:37;31.00;;;21.88;;
51764;SDS011;37835;53.256;6.456;2024-02-21T11:14:05;36.25;;;22.38;;
51764;SDS011;37835;53.256;6.456;2024-02-21T11:16:38;36.55;;;22.08;;
51764;SDS011;37835;53.256;6.456;2024-02-21T11:19:08;32.55;;;21.67;;
51764;SDS011;37835;53.256;6.456;2024-02-21T11:21:38;32.67;;;20.90;;
51764;SDS011;37835;53.256;6.456;2024-02-21T11:24:04;32.72;;;21.15;;
51764;SDS011;37835;53.256;6.456;2024-02-21T11:26:30;34.75;;;21.85;;
51764;SDS011;37835;53.256;6.456;2024-02-21T11:29:01;31.33;;;20.92;;
51764;SDS011;37835;53.256;6.456;2024-02-21T11:31:40;33.53;;;21.05;;
51764;SDS011;37835;53.256;6.456;2024-02-21T11:34:10;31.98;;;21.27;;
51764;SDS011;37835;53.256;6.456;2024-02-21T11:36:48;31.40;;;20.67;;
51764;SDS011;37835;53.256;6.456;2024-02-21T11:39:24;30.35;;;20.23;;
51764;SDS011;37835;53.256;6.456;2024-02-21T11:44:29;35.95;;;20.10;;
51764;SDS011;37835;53.256;6.456;2024-02-21T11:46:56;28.92;;;19.98;;
51764;SDS011;37835;53.256;6.456;2024-02-21T11:49:24;34.35;;;19.90;;
51764;SDS011;37835;53.256;6.456;2024-02-21T11:51:57;26.30;;;18.45;;
51764;SDS011;37835;53.256;6.456;2024-02-21T11:54:29;26.35;;;17.77;;
51764;SDS011;37835;53.256;6.456;2024-02-21T11:56:55;27.80;;;18.00;;
51764;SDS011;37835;53.256;6.456;2024-02-21T11:59:21;28.05;;;17.48;;
51764;SDS011;37835;53.256;6.456;2024-02-21T12:01:48;21.77;;;16.25;;
51764;SDS011;37835;53.256;6.456;2024-02-21T12:04:15;21.05;;;15.88;;
51764;SDS011;37835;53.256;6.456;2024-02-21T12:06:42;27.63;;;16.80;;
51764;SDS011;37835;53.256;6.456;2024-02-21T12:09:09;24.92;;;16.02;;
51764;SDS011;37835;53.256;6.456;2024-02-21T12:11:38;25.73;;;15.93;;
51764;SDS011;37835;53.256;6.456;2024-02-21T12:14:04;25.73;;;14.48;;
51764;SDS011;37835;53.256;6.456;2024-02-21T12:16:30;23.15;;;14.70;;
51764;SDS011;37835;53.256;6.456;2024-02-21T12:18:57;24.13;;;14.48;;
51764;SDS011;37835;53.256;6.456;2024-02-21T12:21:26;22.40;;;14.05;;
51764;SDS011;37835;53.256;6.456;2024-02-21T12:23:55;22.85;;;12.93;;
51764;SDS011;37835;53.256;6.456;2024-02-21T12:26:21;22.55;;;13.10;;
51764;SDS011;37835;53.256;6.456;2024-02-21T12:28:47;24.02;;;13.25;;
51764;SDS011;37835;53.256;6.456;2024-02-21T12:31:13;17.50;;;11.98;;
51764;SDS011;37835;53.256;6.456;2024-02-21T12:33:39;16.95;;;11.73;;
51764;SDS011;37835;53.256;6.456;2024-02-21T12:36:05;16.88;;;11.57;;
51764;SDS011;37835;53.256;6.456;2024-02-21T12:38:31;19.13;;;11.75;;
51764;SDS011;37835;53.256;6.456;2024-02-21T12:40:56;17.77;;;12.23;;
51764;SDS011;37835;53.256;6.456;2024-02-21T12:43:22;19.30;;;12.30;;
51764;SDS011;37835;53.256;6.456;2024-02-21T12:45:48;18.33;;;12.82;;
51764;SDS011;37835;53.256;6.456;2024-02-21T12:48:14;18.08;;;11.48;;
51764;SDS011;37835;53.256;6.456;2024-02-21T12:50:41;17.58;;;12.02;;
51764;SDS011;37835;53.256;6.456;2024-02-21T12:53:15;19.52;;;11.50;;
51764;SDS011;37835;53.256;6.456;2024-02-21T12:55:41;17.65;;;11.40;;
51764;SDS011;37835;53.256;6.456;2024-02-21T12:58:06;18.30;;;11.38;;
51764;SDS011;37835;53.256;6.456;2024-02-21T13:00:32;19.83;;;11.73;;
51764;SDS011;37835;53.256;6.456;2024-02-21T13:03:00;20.13;;;11.40;;
51764;SDS011;37835;53.256;6.456;2024-02-21T13:05:26;16.52;;;10.73;;
51764;SDS011;37835;53.256;6.456;2024-02-21T13:07:52;15.38;;;10.20;;
51764;SDS011;37835;53.256;6.456;2024-02-21T13:10:19;17.52;;;10.68;;
51764;SDS011;37835;53.256;6.456;2024-02-21T13:12:45;14.25;;;10.20;;
51764;SDS011;37835;53.256;6.456;2024-02-21T13:15:10;14.45;;;9.57;;
51764;SDS011;37835;53.256;6.456;2024-02-21T13:17:37;15.68;;;10.50;;
51764;SDS011;37835;53.256;6.456;2024-02-21T13:20:03;17.52;;;9.43;;
51764;SDS011;37835;53.256;6.456;2024-02-21T13:22:30;14.15;;;9.50;;
51764;SDS011;37835;53.256;6.456;2024-02-21T13:24:56;13.90;;;9.80;;
51764;SDS011;37835;53.256;6.456;2024-02-21T13:27:22;14.82;;;9.32;;
51764;SDS011;37835;53.256;6.456;2024-02-21T13:29:48;13.57;;;8.40;;
51764;SDS011;37835;53.256;6.456;2024-02-21T13:32:13;13.98;;;8.55;;
51764;SDS011;37835;53.256;6.456;2024-02-21T13:34:40;16.65;;;9.00;;
51764;SDS011;37835;53.256;6.456;2024-02-21T13:37:07;10.32;;;7.85;;
51764;SDS011;37835;53.256;6.456;2024-02-21T13:39:35;12.60;;;8.07;;
51764;SDS011;37835;53.256;6.456;2024-02-21T13:42:01;12.48;;;7.80;;
51764;SDS011;37835;53.256;6.456;2024-02-21T13:44:30;10.95;;;7.35;;
51764;SDS011;37835;53.256;6.456;2024-02-21T13:46:59;11.98;;;8.13;;
51764;SDS011;37835;53.256;6.456;2024-02-21T13:49:25;12.80;;;8.10;;
51764;SDS011;37835;53.256;6.456;2024-02-21T13:51:51;10.35;;;8.13;;
51764;SDS011;37835;53.256;6.456;2024-02-21T13:54:17;9.60;;;7.28;;
51764;SDS011;37835;53.256;6.456;2024-02-21T13:56:44;8.65;;;7.20;;
51764;SDS011;37835;53.256;6.456;2024-02-21T13:59:11;14.05;;;6.93;;
51764;SDS011;37835;53.256;6.456;2024-02-21T14:01:41;11.88;;;7.05;;
51764;SDS011;37835;53.256;6.456;2024-02-21T14:04:08;12.73;;;9.10;;
51764;SDS011;37835;53.256;6.456;2024-02-21T14:06:33;11.45;;;8.13;;
51764;SDS011;37835;53.256;6.456;2024-02-21T14:08:59;9.35;;;6.90;;
51764;SDS011;37835;53.256;6.456;2024-02-21T14:11:25;11.15;;;6.50;;
51764;SDS011;37835;53.256;6.456;2024-02-21T14:13:52;9.68;;;6.90;;
51764;SDS011;37835;53.256;6.456;2024-02-21T14:16:17;9.15;;;6.45;;
51764;SDS011;37835;53.256;6.456;2024-02-21T14:18:43;9.57;;;6.72;;
51764;SDS011;37835;53.256;6.456;2024-02-21T14:21:09;9.80;;;6.63;;
51764;SDS011;37835;53.256;6.456;2024-02-21T14:23:39;7.90;;;6.47;;
51764;SDS011;37835;53.256;6.456;2024-02-21T14:26:05;7.90;;;6.35;;
51764;SDS011;37835;53.256;6.456;2024-02-21T14:28:31;10.43;;;6.95;;
51764;SDS011;37835;53.256;6.456;2024-02-21T14:30:59;9.90;;;6.80;;
51764;SDS011;37835;53.256;6.456;2024-02-21T14:33:26;7.47;;;6.55;;
51764;SDS011;37835;53.256;6.456;2024-02-21T14:35:52;9.43;;;6.63;;
51764;SDS011;37835;53.256;6.456;2024-02-21T14:38:18;7.25;;;6.28;;
51764;SDS011;37835;53.256;6.456;2024-02-21T14:40:44;10.35;;;6.65;;
51764;SDS011;37835;53.256;6.456;2024-02-21T14:43:10;8.95;;;6.45;;
51764;SDS011;37835;53.256;6.456;2024-02-21T14:45:36;9.45;;;6.72;;